Aviation Digital Data Service (ADDS)

Output produced by METARs form (0533 UTC 19 March 2019)
found at http://www.aviationweather.gov/metar/data/
 
METAR text: KAUS 190453Z 17003KT 10SM FEW110 SCT200 BKN250 11/04 A3027 RMK AO2 SLP250 T01060039
Conditions at: KAUS (AUSTIN , TX, US) observed 0453 UTC 19 March 2019
Temperature: 10.6°C (51°F)
Dewpoint: 3.9°C (39°F) [RH = 63%]
Pressure (altimeter): 30.27 inches Hg (1025.1 mb)
[Sea-level pressure: 1025.0 mb]
Winds: from the S (170 degrees) at 3 MPH (3 knots; 1.5 m/s)
Visibility: 10 or more miles (16+ km)
Ceiling: 25000 feet AGL
Clouds: few clouds at 11000 feet AGL
scattered clouds at 20000 feet AGL
broken clouds at 25000 feet AGL
Weather: no significant weather observed at this time

METAR text: KAUS 190353Z 00000KT 10SM FEW110 BKN200 09/04 A3027 RMK AO2 SLP252 T00890039
Conditions at: KAUS (AUSTIN , TX, US) observed 0353 UTC 19 March 2019
Temperature: 8.9°C (48°F)
Dewpoint: 3.9°C (39°F) [RH = 71%]
Pressure (altimeter): 30.27 inches Hg (1025.1 mb)
[Sea-level pressure: 1025.2 mb]
Winds: calm
Visibility: 10 or more miles (16+ km)
Ceiling: 20000 feet AGL
Clouds: few clouds at 11000 feet AGL
broken clouds at 20000 feet AGL
Weather: no significant weather observed at this time

METAR text: KAUS 190253Z 00000KT 10SM FEW100 FEW200 10/03 A3026 RMK AO2 SLP249 T01000028 53017
Conditions at: KAUS (AUSTIN , TX, US) observed 0253 UTC 19 March 2019
Temperature: 10.0°C (50°F)
Dewpoint: 2.8°C (37°F) [RH = 61%]
Pressure (altimeter): 30.26 inches Hg (1024.8 mb)
[Sea-level pressure: 1024.9 mb]
Winds: calm
Visibility: 10 or more miles (16+ km)
Ceiling: at least 12,000 feet AGL
Clouds: few clouds at 10000 feet AGL
few clouds at 20000 feet AGL
Weather: no significant weather observed at this time

METAR text: KAUS 190153Z 16004KT 10SM CLR 11/02 A3024 RMK AO2 SLP241 T01110022
Conditions at: KAUS (AUSTIN , TX, US) observed 0153 UTC 19 March 2019
Temperature: 11.1°C (52°F)
Dewpoint: 2.2°C (36°F) [RH = 54%]
Pressure (altimeter): 30.24 inches Hg (1024.1 mb)
[Sea-level pressure: 1024.1 mb]
Winds: from the SSE (160 degrees) at 5 MPH (4 knots; 2.1 m/s)
Visibility: 10 or more miles (16+ km)
Ceiling: at least 12,000 feet AGL
Clouds: sky clear below 12,000 feet AGL
Weather: no significant weather observed at this time

METAR text: KAUS 190053Z 16004KT 10SM FEW150 FEW300 13/01 A3023 RMK AO2 SLP239 T01330006
Conditions at: KAUS (AUSTIN , TX, US) observed 0053 UTC 19 March 2019
Temperature: 13.3°C (56°F)
Dewpoint: 0.6°C (33°F) [RH = 42%]
Pressure (altimeter): 30.23 inches Hg (1023.8 mb)
[Sea-level pressure: 1023.9 mb]
Winds: from the SSE (160 degrees) at 5 MPH (4 knots; 2.1 m/s)
Visibility: 10 or more miles (16+ km)
Ceiling: at least 12,000 feet AGL
Clouds: few clouds at 15000 feet AGL
few clouds at 30000 feet AGL
Weather: no significant weather observed at this time

METAR text: KAUS 182353Z 16008KT 10SM FEW080 FEW300 18/M02 A3021 RMK AO2 SLP231 T01831017 10211 20183 55002
Conditions at: KAUS (AUSTIN , TX, US) observed 2353 UTC 18 March 2019
Temperature: 18.3°C (65°F)
Dewpoint: -1.7°C (29°F) [RH = 26%]
Pressure (altimeter): 30.21 inches Hg (1023.1 mb)
[Sea-level pressure: 1023.1 mb]
Winds: from the SSE (160 degrees) at 9 MPH (8 knots; 4.1 m/s)
Visibility: 10 or more miles (16+ km)
Ceiling: at least 12,000 feet AGL
Clouds: few clouds at 8000 feet AGL
few clouds at 30000 feet AGL
Weather: no significant weather observed at this time

METAR text: KAUS 182253Z 14011KT 10SM FEW300 20/00 A3020 RMK AO2 SLP224 T02000000
Conditions at: KAUS (AUSTIN , TX, US) observed 2253 UTC 18 March 2019
Temperature: 20.0°C (68°F)
Dewpoint: 0.0°C (32°F) [RH = 26%]
Pressure (altimeter): 30.20 inches Hg (1022.8 mb)
[Sea-level pressure: 1022.4 mb]
Winds: from the SE (140 degrees) at 13 MPH (11 knots; 5.7 m/s)
Visibility: 10 or more miles (16+ km)
Ceiling: at least 12,000 feet AGL
Clouds: few clouds at 30000 feet AGL
Weather: no significant weather observed at this time

METAR text: KAUS 182153Z 13013KT 10SM FEW300 21/01 A3020 RMK AO2 SLP225 T02060006
Conditions at: KAUS (AUSTIN , TX, US) observed 2153 UTC 18 March 2019
Temperature: 20.6°C (69°F)
Dewpoint: 0.6°C (33°F) [RH = 26%]
Pressure (altimeter): 30.20 inches Hg (1022.8 mb)
[Sea-level pressure: 1022.5 mb]
Winds: from the SE (130 degrees) at 15 MPH (13 knots; 6.7 m/s)
Visibility: 10 or more miles (16+ km)
Ceiling: at least 12,000 feet AGL
Clouds: few clouds at 30000 feet AGL
Weather: no significant weather observed at this time

METAR text: KAUS 182053Z 11010KT 10SM FEW300 21/01 A3022 RMK AO2 SLP232 T02060006 58031
Conditions at: KAUS (AUSTIN , TX, US) observed 2053 UTC 18 March 2019
Temperature: 20.6°C (69°F)
Dewpoint: 0.6°C (33°F) [RH = 26%]
Pressure (altimeter): 30.22 inches Hg (1023.5 mb)
[Sea-level pressure: 1023.2 mb]
Winds: from the ESE (110 degrees) at 12 MPH (10 knots; 5.1 m/s)
Visibility: 10 or more miles (16+ km)
Ceiling: at least 12,000 feet AGL
Clouds: few clouds at 30000 feet AGL
Weather: no significant weather observed at this time

METAR text: KAUS 181953Z 06007KT 10SM FEW100 FEW300 21/00 A3025 RMK AO2 SLP242 T02060000
Conditions at: KAUS (AUSTIN , TX, US) observed 1953 UTC 18 March 2019
Temperature: 20.6°C (69°F)
Dewpoint: 0.0°C (32°F) [RH = 25%]
Pressure (altimeter): 30.25 inches Hg (1024.5 mb)
[Sea-level pressure: 1024.2 mb]
Winds: from the ENE (60 degrees) at 8 MPH (7 knots; 3.6 m/s)
Visibility: 10 or more miles (16+ km)
Ceiling: at least 12,000 feet AGL
Clouds: few clouds at 10000 feet AGL
few clouds at 30000 feet AGL
Weather: no significant weather observed at this time

METAR text: KAUS 181853Z 10006KT 10SM FEW300 19/M01 A3028 RMK AO2 SLP253 T01941006
Conditions at: KAUS (AUSTIN , TX, US) observed 1853 UTC 18 March 2019
Temperature: 19.4°C (67°F)
Dewpoint: -0.6°C (31°F) [RH = 26%]
Pressure (altimeter): 30.28 inches Hg (1025.5 mb)
[Sea-level pressure: 1025.3 mb]
Winds: from the E (100 degrees) at 7 MPH (6 knots; 3.1 m/s)
Visibility: 10 or more miles (16+ km)
Ceiling: at least 12,000 feet AGL
Clouds: few clouds at 30000 feet AGL
Weather: no significant weather observed at this time

METAR text: KAUS 181753Z 08009G19KT 10SM FEW160 FEW300 19/01 A3031 RMK AO2 SLP263 T01940011 10194 20056 58001
Conditions at: KAUS (AUSTIN , TX, US) observed 1753 UTC 18 March 2019
Temperature: 19.4°C (67°F)
Dewpoint: 1.1°C (34°F) [RH = 29%]
Pressure (altimeter): 30.31 inches Hg (1026.5 mb)
[Sea-level pressure: 1026.3 mb]
Winds: from the E (80 degrees) at 10 MPH (9 knots; 4.6 m/s)
gusting to 22 MPH (19 knots; 9.8 m/s)
Visibility: 10 or more miles (16+ km)
Ceiling: at least 12,000 feet AGL
Clouds: few clouds at 16000 feet AGL
few clouds at 30000 feet AGL
Weather: no significant weather observed at this time

METAR text: KAUS 181653Z 10009KT 10SM FEW150 SCT300 18/01 A3033 RMK AO2 SLP269 T01830011
Conditions at: KAUS (AUSTIN , TX, US) observed 1653 UTC 18 March 2019
Temperature: 18.3°C (65°F)
Dewpoint: 1.1°C (34°F) [RH = 31%]
Pressure (altimeter): 30.33 inches Hg (1027.2 mb)
[Sea-level pressure: 1026.9 mb]
Winds: from the E (100 degrees) at 10 MPH (9 knots; 4.6 m/s)
Visibility: 10 or more miles (16+ km)
Ceiling: at least 12,000 feet AGL
Clouds: few clouds at 15000 feet AGL
scattered clouds at 30000 feet AGL
Weather: no significant weather observed at this time

METAR text: KAUS 181553Z 06005KT 10SM FEW150 SCT200 BKN300 16/04 A3033 RMK AO2 SLP269 T01560044
Conditions at: KAUS (AUSTIN , TX, US) observed 1553 UTC 18 March 2019
Temperature: 15.6°C (60°F)
Dewpoint: 4.4°C (40°F) [RH = 47%]
Pressure (altimeter): 30.33 inches Hg (1027.2 mb)
[Sea-level pressure: 1026.9 mb]
Winds: from the ENE (60 degrees) at 6 MPH (5 knots; 2.6 m/s)
Visibility: 10 or more miles (16+ km)
Ceiling: 30000 feet AGL
Clouds: few clouds at 15000 feet AGL
scattered clouds at 20000 feet AGL
broken clouds at 30000 feet AGL
Weather: no significant weather observed at this time

METAR text: KAUS 181453Z 36004KT 10SM SCT150 BKN200 BKN300 12/06 A3031 RMK AO2 SLP268 T01220056 53017
Conditions at: KAUS (AUSTIN , TX, US) observed 1453 UTC 18 March 2019
Temperature: 12.2°C (54°F)
Dewpoint: 5.6°C (42°F) [RH = 64%]
Pressure (altimeter): 30.31 inches Hg (1026.5 mb)
[Sea-level pressure: 1026.8 mb]
Winds: from the N (360 degrees) at 5 MPH (4 knots; 2.1 m/s)
Visibility: 10 or more miles (16+ km)
Ceiling: 20000 feet AGL
Clouds: scattered clouds at 15000 feet AGL
broken clouds at 20000 feet AGL
broken clouds at 30000 feet AGL
Weather: no significant weather observed at this time

METAR text: KAUS 181353Z 00000KT 10SM SCT150 BKN200 BKN300 09/06 A3029 RMK AO2 SLP261 T00890061
Conditions at: KAUS (AUSTIN , TX, US) observed 1353 UTC 18 March 2019
Temperature: 8.9°C (48°F)
Dewpoint: 6.1°C (43°F) [RH = 83%]
Pressure (altimeter): 30.29 inches Hg (1025.8 mb)
[Sea-level pressure: 1026.1 mb]
Winds: calm
Visibility: 10 or more miles (16+ km)
Ceiling: 20000 feet AGL
Clouds: scattered clouds at 15000 feet AGL
broken clouds at 20000 feet AGL
broken clouds at 30000 feet AGL
Weather: no significant weather observed at this time

METAR text: KAUS 181253Z 00000KT 10SM SCT150 BKN250 06/04 A3027 RMK AO2 SLP254 T00610039
Conditions at: KAUS (AUSTIN , TX, US) observed 1253 UTC 18 March 2019
Temperature: 6.1°C (43°F)
Dewpoint: 3.9°C (39°F) [RH = 86%]
Pressure (altimeter): 30.27 inches Hg (1025.1 mb)
[Sea-level pressure: 1025.4 mb]
Winds: calm
Visibility: 10 or more miles (16+ km)
Ceiling: 25000 feet AGL
Clouds: scattered clouds at 15000 feet AGL
broken clouds at 25000 feet AGL
Weather: no significant weather observed at this time

METAR text: KAUS 181153Z 00000KT 10SM SCT150 BKN250 07/04 A3026 RMK AO2 SLP248 T00670044 10083 20044 53003
Conditions at: KAUS (AUSTIN , TX, US) observed 1153 UTC 18 March 2019
Temperature: 6.7°C (44°F)
Dewpoint: 4.4°C (40°F) [RH = 85%]
Pressure (altimeter): 30.26 inches Hg (1024.8 mb)
[Sea-level pressure: 1024.8 mb]
Winds: calm
Visibility: 10 or more miles (16+ km)
Ceiling: 25000 feet AGL
Clouds: scattered clouds at 15000 feet AGL
broken clouds at 25000 feet AGL
Weather: no significant weather observed at this time

METAR text: KAUS 181053Z 00000KT 10SM SCT150 BKN250 07/05 A3025 RMK AO2 SLP244 T00720050
Conditions at: KAUS (AUSTIN , TX, US) observed 1053 UTC 18 March 2019
Temperature: 7.2°C (45°F)
Dewpoint: 5.0°C (41°F) [RH = 86%]
Pressure (altimeter): 30.25 inches Hg (1024.5 mb)
[Sea-level pressure: 1024.4 mb]
Winds: calm
Visibility: 10 or more miles (16+ km)
Ceiling: 25000 feet AGL
Clouds: scattered clouds at 15000 feet AGL
broken clouds at 25000 feet AGL
Weather: no significant weather observed at this time

METAR text: KAUS 180953Z 00000KT 10SM SCT150 BKN250 06/04 A3025 RMK AO2 SLP243 T00610039
Conditions at: KAUS (AUSTIN , TX, US) observed 0953 UTC 18 March 2019
Temperature: 6.1°C (43°F)
Dewpoint: 3.9°C (39°F) [RH = 86%]
Pressure (altimeter): 30.25 inches Hg (1024.5 mb)
[Sea-level pressure: 1024.3 mb]
Winds: calm
Visibility: 10 or more miles (16+ km)
Ceiling: 25000 feet AGL
Clouds: scattered clouds at 15000 feet AGL
broken clouds at 25000 feet AGL
Weather: no significant weather observed at this time

METAR text: KAUS 180853Z 00000KT 10SM SCT150 BKN250 04/03 A3025 RMK AO2 SLP245 T00440028 58006
Conditions at: KAUS (AUSTIN , TX, US) observed 0853 UTC 18 March 2019
Temperature: 4.4°C (40°F)
Dewpoint: 2.8°C (37°F) [RH = 89%]
Pressure (altimeter): 30.25 inches Hg (1024.5 mb)
[Sea-level pressure: 1024.5 mb]
Winds: calm
Visibility: 10 or more miles (16+ km)
Ceiling: 25000 feet AGL
Clouds: scattered clouds at 15000 feet AGL
broken clouds at 25000 feet AGL
Weather: no significant weather observed at this time

METAR text: KAUS 180753Z 25003KT 10SM SCT150 BKN250 05/03 A3027 RMK AO2 SLP251 T00500033
Conditions at: KAUS (AUSTIN , TX, US) observed 0753 UTC 18 March 2019
Temperature: 5.0°C (41°F)
Dewpoint: 3.3°C (38°F) [RH = 89%]
Pressure (altimeter): 30.27 inches Hg (1025.1 mb)
[Sea-level pressure: 1025.1 mb]
Winds: from the WSW (250 degrees) at 3 MPH (3 knots; 1.5 m/s)
Visibility: 10 or more miles (16+ km)
Ceiling: 25000 feet AGL
Clouds: scattered clouds at 15000 feet AGL
broken clouds at 25000 feet AGL
Weather: no significant weather observed at this time

METAR text: KAUS 180653Z 26003KT 10SM FEW055 SCT150 BKN250 08/04 A3027 RMK AO2 SLP249 T00830044
Conditions at: KAUS (AUSTIN , TX, US) observed 0653 UTC 18 March 2019
Temperature: 8.3°C (47°F)
Dewpoint: 4.4°C (40°F) [RH = 76%]
Pressure (altimeter): 30.27 inches Hg (1025.1 mb)
[Sea-level pressure: 1024.9 mb]
Winds: from the W (260 degrees) at 3 MPH (3 knots; 1.5 m/s)
Visibility: 10 or more miles (16+ km)
Ceiling: 25000 feet AGL
Clouds: few clouds at 5500 feet AGL
scattered clouds at 15000 feet AGL
broken clouds at 25000 feet AGL
Weather: no significant weather observed at this time

METAR text: KAUS 180553Z 00000KT 10SM BKN250 07/03 A3027 RMK AO2 SLP251 T00670033 10183 20056 402000028 50002
Conditions at: KAUS (AUSTIN , TX, US) observed 0553 UTC 18 March 2019
Temperature: 6.7°C (44°F)
Dewpoint: 3.3°C (38°F) [RH = 79%]
Pressure (altimeter): 30.27 inches Hg (1025.1 mb)
[Sea-level pressure: 1025.1 mb]
Winds: calm
Visibility: 10 or more miles (16+ km)
Ceiling: 25000 feet AGL
Clouds: broken clouds at 25000 feet AGL
Weather: no significant weather observed at this time

METAR text: KAUS 180453Z 00000KT 10SM BKN250 08/04 A3028 RMK AO2 SLP254 T00830039
Conditions at: KAUS (AUSTIN , TX, US) observed 0453 UTC 18 March 2019
Temperature: 8.3°C (47°F)
Dewpoint: 3.9°C (39°F) [RH = 74%]
Pressure (altimeter): 30.28 inches Hg (1025.5 mb)
[Sea-level pressure: 1025.4 mb]
Winds: calm
Visibility: 10 or more miles (16+ km)
Ceiling: 25000 feet AGL
Clouds: broken clouds at 25000 feet AGL
Weather: no significant weather observed at this time

METAR text: KAUS 180353Z 00000KT 10SM BKN250 08/04 A3028 RMK AO2 SLP256 T00780044
Conditions at: KAUS (AUSTIN , TX, US) observed 0353 UTC 18 March 2019
Temperature: 7.8°C (46°F)
Dewpoint: 4.4°C (40°F) [RH = 79%]
Pressure (altimeter): 30.28 inches Hg (1025.5 mb)
[Sea-level pressure: 1025.6 mb]
Winds: calm
Visibility: 10 or more miles (16+ km)
Ceiling: 25000 feet AGL
Clouds: broken clouds at 25000 feet AGL
Weather: no significant weather observed at this time

METAR text: KAUS 180253Z 04003KT 10SM FEW120 BKN250 08/04 A3027 RMK AO2 SLP250 T00780039 51013
Conditions at: KAUS (AUSTIN , TX, US) observed 0253 UTC 18 March 2019
Temperature: 7.8°C (46°F)
Dewpoint: 3.9°C (39°F) [RH = 76%]
Pressure (altimeter): 30.27 inches Hg (1025.1 mb)
[Sea-level pressure: 1025.0 mb]
Winds: from the NE (40 degrees) at 3 MPH (3 knots; 1.5 m/s)
Visibility: 10 or more miles (16+ km)
Ceiling: 25000 feet AGL
Clouds: few clouds at 12000 feet AGL
broken clouds at 25000 feet AGL
Weather: no significant weather observed at this time

METAR text: KAUS 180153Z 00000KT 10SM SCT120 BKN250 09/04 A3025 RMK AO2 SLP248 T00890044
Conditions at: KAUS (AUSTIN , TX, US) observed 0153 UTC 18 March 2019
Temperature: 8.9°C (48°F)
Dewpoint: 4.4°C (40°F) [RH = 73%]
Pressure (altimeter): 30.25 inches Hg (1024.5 mb)
[Sea-level pressure: 1024.8 mb]
Winds: calm
Visibility: 10 or more miles (16+ km)
Ceiling: 25000 feet AGL
Clouds: scattered clouds at 12000 feet AGL
broken clouds at 25000 feet AGL
Weather: no significant weather observed at this time

METAR text: KAUS 180053Z 17003KT 10SM SCT120 SCT250 13/03 A3024 RMK AO2 SLP244 T01330028
Conditions at: KAUS (AUSTIN , TX, US) observed 0053 UTC 18 March 2019
Temperature: 13.3°C (56°F)
Dewpoint: 2.8°C (37°F) [RH = 49%]
Pressure (altimeter): 30.24 inches Hg (1024.1 mb)
[Sea-level pressure: 1024.4 mb]
Winds: from the S (170 degrees) at 3 MPH (3 knots; 1.5 m/s)
Visibility: 10 or more miles (16+ km)
Ceiling: at least 12,000 feet AGL
Clouds: scattered clouds at 12000 feet AGL
scattered clouds at 25000 feet AGL
Weather: no significant weather observed at this time

METAR text: KAUS 172353Z 18003KT 10SM FEW120 FEW250 18/02 A3023 RMK AO2 SLP237 T01830017 10200 20167 56006
Conditions at: KAUS (AUSTIN , TX, US) observed 2353 UTC 17 March 2019
Temperature: 18.3°C (65°F)
Dewpoint: 1.7°C (35°F) [RH = 33%]
Pressure (altimeter): 30.23 inches Hg (1023.8 mb)
[Sea-level pressure: 1023.7 mb]
Winds: from the S (180 degrees) at 3 MPH (3 knots; 1.5 m/s)
Visibility: 10 or more miles (16+ km)
Ceiling: at least 12,000 feet AGL
Clouds: few clouds at 12000 feet AGL
few clouds at 25000 feet AGL
Weather: no significant weather observed at this time

METAR text: KAUS 172253Z 13004KT 10SM SCT120 BKN250 19/00 A3023 RMK AO2 SLP235 T01890000
Conditions at: KAUS (AUSTIN , TX, US) observed 2253 UTC 17 March 2019
Temperature: 18.9°C (66°F)
Dewpoint: 0.0°C (32°F) [RH = 28%]
Pressure (altimeter): 30.23 inches Hg (1023.8 mb)
[Sea-level pressure: 1023.5 mb]
Winds: from the SE (130 degrees) at 5 MPH (4 knots; 2.1 m/s)
Visibility: 10 or more miles (16+ km)
Ceiling: 25000 feet AGL
Clouds: scattered clouds at 12000 feet AGL
broken clouds at 25000 feet AGL
Weather: no significant weather observed at this time

METAR text: KAUS 172153Z 11005KT 10SM SCT120 BKN250 19/01 A3023 RMK AO2 SLP237 T01890011
Conditions at: KAUS (AUSTIN , TX, US) observed 2153 UTC 17 March 2019
Temperature: 18.9°C (66°F)
Dewpoint: 1.1°C (34°F) [RH = 30%]
Pressure (altimeter): 30.23 inches Hg (1023.8 mb)
[Sea-level pressure: 1023.7 mb]
Winds: from the ESE (110 degrees) at 6 MPH (5 knots; 2.6 m/s)
Visibility: 10 or more miles (16+ km)
Ceiling: 25000 feet AGL
Clouds: scattered clouds at 12000 feet AGL
broken clouds at 25000 feet AGL
Weather: no significant weather observed at this time

METAR text: KAUS 172053Z 00000KT 10SM BKN120 BKN250 19/00 A3025 RMK AO2 SLP242 T01940000 56032
Conditions at: KAUS (AUSTIN , TX, US) observed 2053 UTC 17 March 2019
Temperature: 19.4°C (67°F)
Dewpoint: 0.0°C (32°F) [RH = 27%]
Pressure (altimeter): 30.25 inches Hg (1024.5 mb)
[Sea-level pressure: 1024.2 mb]
Winds: calm
Visibility: 10 or more miles (16+ km)
Ceiling: 12000 feet AGL
Clouds: broken clouds at 12000 feet AGL
broken clouds at 25000 feet AGL
Weather: no significant weather observed at this time

METAR text: KAUS 171953Z VRB03KT 10SM BKN120 BKN250 19/01 A3027 RMK AO2 SLP249 T01890006
Conditions at: KAUS (AUSTIN , TX, US) observed 1953 UTC 17 March 2019
Temperature: 18.9°C (66°F)
Dewpoint: 0.6°C (33°F) [RH = 29%]
Pressure (altimeter): 30.27 inches Hg (1025.1 mb)
[Sea-level pressure: 1024.9 mb]
Winds: variable direction winds at 3 MPH (3 knots; 1.5 m/s)
Visibility: 10 or more miles (16+ km)
Ceiling: 12000 feet AGL
Clouds: broken clouds at 12000 feet AGL
broken clouds at 25000 feet AGL
Weather: no significant weather observed at this time

METAR text: KAUS 171853Z VRB04KT 10SM FEW120 SCT200 SCT250 18/01 A3031 RMK AO2 SLP263 T01780011
Conditions at: KAUS (AUSTIN , TX, US) observed 1853 UTC 17 March 2019
Temperature: 17.8°C (64°F)
Dewpoint: 1.1°C (34°F) [RH = 32%]
Pressure (altimeter): 30.31 inches Hg (1026.5 mb)
[Sea-level pressure: 1026.3 mb]
Winds: variable direction winds at 5 MPH (4 knots; 2.1 m/s)
Visibility: 10 or more miles (16+ km)
Ceiling: at least 12,000 feet AGL
Clouds: few clouds at 12000 feet AGL
scattered clouds at 20000 feet AGL
scattered clouds at 25000 feet AGL
Weather: no significant weather observed at this time

METAR text: KAUS 171753Z VRB06KT 10SM FEW120 SCT200 BKN250 17/01 A3034 RMK AO2 SLP274 T01720011 10172 20028 58005
Conditions at: KAUS (AUSTIN , TX, US) observed 1753 UTC 17 March 2019
Temperature: 17.2°C (63°F)
Dewpoint: 1.1°C (34°F) [RH = 34%]
Pressure (altimeter): 30.34 inches Hg (1027.5 mb)
[Sea-level pressure: 1027.4 mb]
Winds: variable direction winds at 7 MPH (6 knots; 3.1 m/s)
Visibility: 10 or more miles (16+ km)
Ceiling: 25000 feet AGL
Clouds: few clouds at 12000 feet AGL
scattered clouds at 20000 feet AGL
broken clouds at 25000 feet AGL
Weather: no significant weather observed at this time

Forecast for: KAUS (AUSTIN , TX, US)
Text: KAUS 190527Z 1906/2012 VRB03KT P6SM BKN250
Forecast period: 0600 to 2000 UTC 19 March 2019
Forecast type: FROM: standard forecast or significant change
Winds: variable direction winds at 3 MPH (3 knots; 1.5 m/s)
Visibility: 6 or more miles 10+ km)
Ceiling: 25000 feet AGL
Clouds: broken clouds at 25000 feet AGL
Weather: no significant weather forecast for this period
Text: FM192000 15009KT P6SM BKN150
Forecast period: 2000 UTC 19 March 2019 to 1200 UTC 20 March 2019
Forecast type: FROM: standard forecast or significant change
Winds: from the SSE (150 degrees) at 10 MPH (9 knots; 4.6 m/s)
Visibility: 6 or more miles 10+ km)
Ceiling: 15000 feet AGL
Clouds: broken clouds at 15000 feet AGL
Weather: no significant weather forecast for this period